This is the latest recevied weather packets stored in our database for station/object HG6IQI-10. If no packets are shown the sender has not sent any weather packets the latest 10 day(s).
| Time | Temp. | Humidity | Pressure | Rain* | Wind** | Luminosity | Snow |
|---|---|---|---|---|---|---|---|
| 1777703595 | 13.89° C | 46% | 1025.4 hPa | - | - | - | - |
| 1777702695 | 12.78° C | 52% | 1025.5 hPa | - | - | - | - |
| 1777701795 | 12.22° C | 59% | 1025.4 hPa | - | - | - | - |
| 1777700894 | 11.11° C | 63% | 1025.4 hPa | - | - | - | - |
| 1777699994 | 10° C | 63% | 1025.3 hPa | - | - | - | - |
| 1777699094 | 9.44° C | 64% | 1025.3 hPa | - | - | - | - |
| 1777698194 | 8.33° C | 71% | 1025.4 hPa | - | - | - | - |
| 1777697294 | 5.56° C | 87% | 1025.3 hPa | - | - | - | - |
| 1777696394 | 3.89° C | 89% | 1025.3 hPa | - | - | - | - |
| 1777693695 | 2.22° C | 87% | 1025.2 hPa | - | - | - | - |
| 1777692798 | 2.78° C | 87% | 1025.1 hPa | - | - | - | - |
| 1777691900 | 2.78° C | 85% | 1025.1 hPa | - | - | - | - |
| 1777690098 | 3.33° C | 85% | 1025.1 hPa | - | - | - | - |
| 1777689198 | 3.33° C | 85% | 1025.1 hPa | - | - | - | - |
| 1777686495 | 5° C | 82% | 1025.1 hPa | - | - | - | - |
| 1777685599 | 5° C | 82% | 1025.2 hPa | - | - | - | - |
| 1777684694 | 5° C | 82% | 1025.3 hPa | - | - | - | - |
| 1777683794 | 5° C | 82% | 1025.5 hPa | - | - | - | - |
| 1777682894 | 5° C | 81% | 1025.6 hPa | - | - | - | - |
| 1777681993 | 5° C | 80% | 1025.5 hPa | - | - | - | - |
| 1777681093 | 5° C | 81% | 1025.6 hPa | - | - | - | - |
| 1777680197 | 5° C | 80% | 1025.7 hPa | - | - | - | - |
| 1777679293 | 4.44° C | 80% | 1025.8 hPa | - | - | - | - |
| 1777678393 | 4.44° C | 79% | 1025.8 hPa | - | - | - | - |
| 1777676593 | 3.89° C | 78% | 1025.7 hPa | - | - | - | - |
* Rain since midnight (hover to see other rain measurements)
** Current wind speed in m/s (hover to see current wind gust speed)